createdAt,value
2022-10-05T00:00:23.627Z,94622.52
2022-10-05T00:01:47.358Z,94622.88
2022-10-05T00:02:52.405Z,94621.18
2022-10-05T00:04:18.865Z,94619.09
2022-10-05T00:05:27.015Z,94622.63
2022-10-05T00:06:30.765Z,94621.35
2022-10-05T00:07:35.140Z,94618.45
2022-10-05T00:08:38.911Z,94618.30
2022-10-05T00:09:48.166Z,94623.91
2022-10-05T00:10:52.054Z,94622.41
2022-10-05T00:11:55.441Z,94627.42
2022-10-05T00:12:58.794Z,94629.51
2022-10-05T00:14:10.998Z,94620.87
2022-10-05T00:15:16.243Z,94623.47
2022-10-05T00:16:21.262Z,94622.63
2022-10-05T00:17:26.259Z,94624.89
2022-10-05T00:18:29.612Z,94611.11
2022-10-05T00:19:42.992Z,94622.59
2022-10-05T00:20:49.072Z,94622.01
2022-10-05T00:21:52.798Z,94620.77
2022-10-05T00:22:57.774Z,94622.02
2022-10-05T00:24:01.770Z,94619.27
2022-10-05T00:25:12.262Z,94621.19
2022-10-05T00:26:21.974Z,94618.89
2022-10-05T00:27:34.314Z,94613.23
2022-10-05T00:28:37.886Z,94618.04
2022-10-05T00:29:41.309Z,94618.29
2022-10-05T00:30:44.724Z,94617.23
2022-10-05T00:31:48.475Z,94613.71
2022-10-05T00:32:56.026Z,94614.03
2022-10-05T00:34:02.242Z,94616.66
2022-10-05T00:35:05.984Z,94614.95
2022-10-05T00:36:11.787Z,94609.93
2022-10-05T00:37:15.490Z,94616.44
2022-10-05T00:38:19.396Z,94601.89
2022-10-05T00:39:22.894Z,94613.83
2022-10-05T00:40:45.181Z,94608.55
2022-10-05T00:41:52.312Z,94615.95
2022-10-05T00:43:18.449Z,94608.23
2022-10-05T00:44:47.740Z,94613.77
2022-10-05T00:46:26.376Z,94603.46
2022-10-05T00:47:51.497Z,94601.14
2022-10-05T00:49:10.632Z,94614.01
2022-10-05T00:50:14.571Z,94610.96
2022-10-05T00:51:18.309Z,94607.39
2022-10-05T00:52:33.688Z,94595.34
2022-10-05T00:53:40.191Z,94601.65
2022-10-05T00:54:46.796Z,94598.02
2022-10-05T00:56:13.070Z,94592.64
2022-10-05T00:57:25.931Z,94582.39
2022-10-05T00:58:48.037Z,94590.23
2022-10-05T00:59:59.514Z,94587.96
2022-10-05T01:01:08.843Z,94585.80
2022-10-05T01:02:47.422Z,94585.76
2022-10-05T01:04:13.954Z,94581.23
2022-10-05T01:05:29.689Z,94580.27
2022-10-05T01:06:53.113Z,94579.33
2022-10-05T01:08:28.541Z,94580.00
2022-10-05T01:10:01.074Z,94578.31
2022-10-05T01:11:10.832Z,94578.98
2022-10-05T01:12:22.357Z,94573.41
2022-10-05T01:13:33.231Z,94573.45
2022-10-05T01:14:39.594Z,94570.27
2022-10-05T01:15:42.759Z,94568.06
2022-10-05T01:17:20.354Z,94569.59
2022-10-05T01:18:41.869Z,94567.39
2022-10-05T01:20:05.031Z,94566.73
2022-10-05T01:21:31.488Z,94565.33
2022-10-05T01:22:49.815Z,94565.19
2022-10-05T01:23:55.934Z,94567.42
2022-10-05T01:25:18.299Z,94563.74
2022-10-05T01:26:28.335Z,94564.21
2022-10-05T01:27:50.479Z,94561.13
2022-10-05T01:28:53.605Z,94560.55
2022-10-05T01:29:56.637Z,94555.33
2022-10-05T01:31:08.889Z,94552.95
2022-10-05T01:32:29.573Z,94547.67
2022-10-05T01:33:33.820Z,94545.86
2022-10-05T01:35:06.438Z,94542.71
2022-10-05T01:36:12.654Z,94542.27
2022-10-05T01:37:30.664Z,94545.56
2022-10-05T01:38:33.980Z,94545.27
2022-10-05T01:39:50.161Z,94541.98
2022-10-05T01:40:59.605Z,94541.42
2022-10-05T01:42:18.543Z,94542.23
2022-10-05T01:43:28.111Z,94540.86
2022-10-05T01:44:38.818Z,94541.46
2022-10-05T01:45:45.080Z,94541.52
2022-10-05T01:46:55.330Z,94539.08
2022-10-05T01:48:06.303Z,94537.40
2022-10-05T01:49:18.791Z,94538.33
2022-10-05T01:50:40.727Z,94534.55
2022-10-05T01:51:51.202Z,94530.85
2022-10-05T01:53:03.274Z,94529.55
2022-10-05T01:54:06.463Z,94528.83
2022-10-05T01:55:22.675Z,94515.20
2022-10-05T01:56:26.076Z,94523.41
2022-10-05T01:57:38.374Z,94525.05
2022-10-05T01:58:52.930Z,94523.64
2022-10-05T02:00:10.588Z,94522.20
2022-10-05T02:01:40.246Z,94518.36
2022-10-05T02:02:47.974Z,94520.08
2022-10-05T02:04:02.024Z,94516.48
2022-10-05T02:05:09.027Z,94517.00
2022-10-05T02:06:17.366Z,94514.79
2022-10-05T02:07:25.254Z,94517.04
2022-10-05T02:08:37.346Z,94511.02
2022-10-05T02:10:01.073Z,94513.63
2022-10-05T02:11:08.967Z,94508.70
2022-10-05T02:12:15.085Z,94507.98
2022-10-05T02:13:18.321Z,94509.27
2022-10-05T02:14:25.681Z,94509.84
2022-10-05T02:15:34.315Z,94510.61
2022-10-05T02:16:48.470Z,94508.36
2022-10-05T02:17:56.154Z,94504.55
2022-10-05T02:19:12.199Z,94503.11
2022-10-05T02:20:24.110Z,94505.36
2022-10-05T02:21:29.530Z,94499.27
2022-10-05T02:22:46.132Z,94506.05
2022-10-05T02:23:54.172Z,94494.54
2022-10-05T02:25:04.385Z,94504.38
2022-10-05T02:26:09.146Z,94504.37
2022-10-05T02:27:14.956Z,94501.14
2022-10-05T02:28:18.504Z,94502.22
2022-10-05T02:29:24.203Z,94495.78
2022-10-05T02:30:29.148Z,94502.31
2022-10-05T02:31:35.593Z,94501.64
2022-10-05T02:32:44.491Z,94505.27
2022-10-05T02:33:48.085Z,94510.39
2022-10-05T02:34:53.074Z,94500.94
2022-10-05T02:36:18.812Z,94499.98
2022-10-05T02:37:41.383Z,94515.95
2022-10-05T02:38:47.795Z,94517.27
2022-10-05T02:40:10.243Z,94518.42
2022-10-05T02:41:34.784Z,94516.95
2022-10-05T02:42:44.101Z,94514.05
2022-10-05T02:43:50.851Z,94514.77
2022-10-05T02:45:03.515Z,94510.77
2022-10-05T02:46:16.433Z,94509.36
2022-10-05T02:47:33.775Z,94506.16
2022-10-05T02:48:42.962Z,94503.04
2022-10-05T02:50:05.244Z,94501.88
2022-10-05T02:51:20.570Z,94497.11
2022-10-05T02:52:34.350Z,94496.35
2022-10-05T02:53:56.706Z,94485.11
2022-10-05T02:55:05.134Z,94477.30
2022-10-05T02:56:31.147Z,94493.12
2022-10-05T02:57:39.323Z,94493.07
2022-10-05T02:59:01.174Z,94489.59
2022-10-05T03:00:06.249Z,94491.41
2022-10-05T03:01:25.898Z,94490.48
2022-10-05T03:02:33.726Z,94489.85
2022-10-05T03:03:39.781Z,94492.39
2022-10-05T03:04:50.545Z,94487.80
2022-10-05T03:05:58.890Z,94497.27
2022-10-05T03:07:12.377Z,94494.79
2022-10-05T03:08:34.869Z,94495.80
2022-10-05T03:09:42.915Z,94497.33
2022-10-05T03:10:46.936Z,94498.35
2022-10-05T03:12:02.563Z,94496.36
2022-10-05T03:13:10.476Z,94499.86
2022-10-05T03:14:18.640Z,94493.96
2022-10-05T03:15:40.716Z,94498.59
2022-10-05T03:16:50.555Z,94503.73
2022-10-05T03:18:08.956Z,94504.73
2022-10-05T03:19:18.497Z,94505.88
2022-10-05T03:20:37.936Z,94505.05
2022-10-05T03:21:41.145Z,94510.13
2022-10-05T03:23:14.447Z,94511.03
2022-10-05T03:24:31.646Z,94505.92
2022-10-05T03:25:44.024Z,94508.81
2022-10-05T03:26:56.768Z,94509.37
2022-10-05T03:28:05.702Z,94504.75
2022-10-05T03:29:29.674Z,94505.22
2022-10-05T03:30:37.323Z,94507.05
2022-10-05T03:31:40.734Z,94505.02
2022-10-05T03:32:50.199Z,94506.44
2022-10-05T03:33:57.511Z,94506.72
2022-10-05T03:35:07.514Z,94502.46
2022-10-05T03:36:10.875Z,94506.77
2022-10-05T03:37:17.093Z,94503.12
2022-10-05T03:38:23.665Z,94507.16
2022-10-05T03:39:31.795Z,94507.52
2022-10-05T03:40:38.267Z,94502.54
2022-10-05T03:41:48.681Z,94502.20
2022-10-05T03:43:02.799Z,94504.50
2022-10-05T03:44:26.783Z,94501.69
2022-10-05T03:45:37.298Z,94501.79
2022-10-05T03:46:59.249Z,94499.74
2022-10-05T03:48:05.525Z,94502.50
2022-10-05T03:49:28.259Z,94502.57
2022-10-05T03:50:51.370Z,94500.36
2022-10-05T03:52:15.220Z,94500.16
2022-10-05T03:53:23.677Z,94501.20
2022-10-05T03:54:30.239Z,94500.91
2022-10-05T03:55:48.229Z,94498.73
2022-10-05T03:56:55.998Z,94503.83
2022-10-05T03:58:03.307Z,94501.66
2022-10-05T03:59:15.267Z,94505.70
2022-10-05T04:00:20.909Z,94503.34
2022-10-05T04:01:33.780Z,94500.81
2022-10-05T04:02:58.321Z,94499.33
2022-10-05T04:04:04.633Z,94493.80
2022-10-05T04:05:10.627Z,94491.39
2022-10-05T04:06:20.324Z,94488.88
2022-10-05T04:07:30.899Z,94486.23
2022-10-05T04:08:47.862Z,94488.32
2022-10-05T04:09:53.039Z,94489.12
2022-10-05T04:10:57.658Z,94487.23
2022-10-05T04:12:13.018Z,94493.61
2022-10-05T04:13:28.717Z,94493.16
2022-10-05T04:14:45.389Z,94493.48
2022-10-05T04:15:56.995Z,94496.90
2022-10-05T04:17:06.309Z,94496.02
2022-10-05T04:18:35.493Z,94501.79
2022-10-05T04:19:54.038Z,94498.92
2022-10-05T04:21:10.810Z,94499.36
2022-10-05T04:22:25.883Z,94496.42
2022-10-05T04:23:47.890Z,94498.72
2022-10-05T04:24:57.874Z,94492.50
2022-10-05T04:26:06.777Z,94493.06
2022-10-05T04:27:29.027Z,94494.23
2022-10-05T04:28:49.805Z,94484.13
2022-10-05T04:29:58.644Z,94489.28
2022-10-05T04:31:04.949Z,94496.13
2022-10-05T04:32:13.988Z,94492.84
2022-10-05T04:33:17.820Z,94492.63
2022-10-05T04:34:40.229Z,94482.23
2022-10-05T04:35:50.356Z,94493.85
2022-10-05T04:36:59.321Z,94494.29
2022-10-05T04:38:02.659Z,94493.73
2022-10-05T04:39:19.410Z,94492.45
2022-10-05T04:40:28.835Z,94495.52
2022-10-05T04:41:38.498Z,94494.79
2022-10-05T04:43:11.074Z,94494.95
2022-10-05T04:44:14.272Z,94495.23
2022-10-05T04:45:49.199Z,94495.55
2022-10-05T04:47:11.808Z,94494.73
2022-10-05T04:48:27.282Z,94492.05
2022-10-05T04:49:49.909Z,94489.97
2022-10-05T04:50:59.534Z,94486.73
2022-10-05T04:52:24.802Z,94490.13
2022-10-05T04:53:39.566Z,94487.49
2022-10-05T04:54:51.840Z,94489.48
2022-10-05T04:56:02.879Z,94493.40
2022-10-05T04:57:10.970Z,94495.05
2022-10-05T04:58:50.047Z,94498.79
2022-10-05T04:59:53.293Z,94496.48
2022-10-05T05:00:59.538Z,94488.76
2022-10-05T05:02:03.602Z,94504.45
2022-10-05T05:03:23.879Z,94504.34
2022-10-05T05:04:38.014Z,94508.30
2022-10-05T05:06:05.117Z,94507.86
2022-10-05T05:07:08.542Z,94510.55
2022-10-05T05:08:30.154Z,94510.58
2022-10-05T05:09:36.342Z,94511.46
2022-10-05T05:10:45.800Z,94512.80
2022-10-05T05:12:01.800Z,94517.93
2022-10-05T05:13:21.371Z,94521.73
2022-10-05T05:14:26.918Z,94523.43
2022-10-05T05:15:47.320Z,94526.72
2022-10-05T05:17:14.053Z,94515.16
2022-10-05T05:18:36.340Z,94523.29
2022-10-05T05:19:54.460Z,94518.75
2022-10-05T05:21:04.119Z,94519.76
2022-10-05T05:22:11.735Z,94515.83
2022-10-05T05:23:14.916Z,94512.75
2022-10-05T05:24:37.344Z,94512.15
2022-10-05T05:25:47.262Z,94510.77
2022-10-05T05:26:53.688Z,94510.62
2022-10-05T05:28:04.302Z,94510.91
2022-10-05T05:29:29.179Z,94508.07
2022-10-05T05:30:51.642Z,94511.15
2022-10-05T05:32:08.164Z,94510.29
2022-10-05T05:33:14.456Z,94513.91
2022-10-05T05:34:50.209Z,94509.15
2022-10-05T05:36:13.960Z,94516.27
2022-10-05T05:37:35.892Z,94514.88
2022-10-05T05:38:42.295Z,94510.12
2022-10-05T05:39:55.565Z,94511.84
2022-10-05T05:40:58.955Z,94509.51
2022-10-05T05:42:11.926Z,94515.64
2022-10-05T05:43:24.529Z,94515.88
2022-10-05T05:44:31.761Z,94503.86
2022-10-05T05:45:39.308Z,94513.10
2022-10-05T05:47:09.580Z,94514.06
2022-10-05T05:48:15.668Z,94510.91
2022-10-05T05:49:28.019Z,94509.98
2022-10-05T05:50:42.219Z,94510.70
2022-10-05T05:51:58.864Z,94513.77
2022-10-05T05:53:11.302Z,94496.44
2022-10-05T05:54:29.981Z,94513.80
2022-10-05T05:55:38.702Z,94515.31
2022-10-05T05:56:49.909Z,94513.30
2022-10-05T05:58:17.905Z,94514.71
2022-10-05T05:59:24.820Z,94515.67
2022-10-05T06:00:54.059Z,94514.40
2022-10-05T06:02:05.261Z,94520.23
2022-10-05T06:03:13.492Z,94523.30
2022-10-05T06:04:31.164Z,94527.27
2022-10-05T06:05:52.569Z,94526.86
2022-10-05T06:06:58.145Z,94533.12
2022-10-05T06:08:03.858Z,94534.71
2022-10-05T06:09:16.811Z,94533.34
2022-10-05T06:10:38.915Z,94531.98
2022-10-05T06:11:50.169Z,94534.54
2022-10-05T06:12:58.509Z,94529.55
2022-10-05T06:14:09.673Z,94531.15
2022-10-05T06:15:20.488Z,94528.96
2022-10-05T06:16:28.829Z,94529.22
2022-10-05T06:17:38.103Z,94533.52
2022-10-05T06:18:44.474Z,94527.91
2022-10-05T06:19:48.949Z,94529.45
2022-10-05T06:21:27.339Z,94528.49
2022-10-05T06:22:39.679Z,94531.46
2022-10-05T06:23:48.771Z,94534.14
2022-10-05T06:25:00.853Z,94536.64
2022-10-05T06:26:10.678Z,94531.86
2022-10-05T06:27:24.728Z,94528.77
2022-10-05T06:28:31.079Z,94533.98
2022-10-05T06:29:46.466Z,94531.55
2022-10-05T06:31:00.198Z,94531.27
2022-10-05T06:32:10.245Z,94518.23
2022-10-05T06:33:37.283Z,94531.85
2022-10-05T06:35:04.428Z,94523.87
2022-10-05T06:36:33.299Z,94534.81
2022-10-05T06:37:55.515Z,94534.59
2022-10-05T06:39:17.983Z,94535.31
2022-10-05T06:40:33.668Z,94542.30
2022-10-05T06:41:43.401Z,94541.36
2022-10-05T06:43:03.321Z,94542.66
2022-10-05T06:44:09.545Z,94541.80
2022-10-05T06:46:03.389Z,94543.49
2022-10-05T06:47:42.291Z,94545.41
2022-10-05T06:49:23.552Z,94545.19
2022-10-05T06:50:48.814Z,94546.36
2022-10-05T06:52:39.668Z,94547.15
2022-10-05T06:53:51.102Z,94540.83
2022-10-05T06:55:14.339Z,94537.40
2022-10-05T06:56:27.077Z,94543.48
2022-10-05T06:57:49.014Z,94540.66
2022-10-05T06:59:00.518Z,94538.55
2022-10-05T07:00:04.861Z,94543.13
2022-10-05T07:01:16.195Z,94543.10
2022-10-05T07:02:35.077Z,94547.14
2022-10-05T07:03:41.019Z,94546.93
2022-10-05T07:04:51.067Z,94545.88
2022-10-05T07:05:54.341Z,94546.63
2022-10-05T07:07:24.104Z,94545.13
2022-10-05T07:08:39.590Z,94543.73
2022-10-05T07:09:52.930Z,94546.58
2022-10-05T07:11:04.382Z,94543.09
2022-10-05T07:12:21.464Z,94540.83
2022-10-05T07:13:43.749Z,94542.16
2022-10-05T07:15:00.959Z,94541.94
2022-10-05T07:16:10.027Z,94542.30
2022-10-05T07:17:26.691Z,94538.99
2022-10-05T07:18:34.432Z,94542.35
2022-10-05T07:19:44.759Z,94541.01
2022-10-05T07:20:52.384Z,94541.02
2022-10-05T07:21:58.325Z,94538.14
2022-10-05T07:23:14.671Z,94537.61
2022-10-05T07:24:33.009Z,94534.00
2022-10-05T07:25:41.264Z,94532.89
2022-10-05T07:26:51.569Z,94530.98
2022-10-05T07:27:59.544Z,94532.33
2022-10-05T07:29:21.638Z,94531.86
2022-10-05T07:30:24.881Z,94529.31
2022-10-05T07:31:34.836Z,94525.44
2022-10-05T07:33:00.367Z,94526.90
2022-10-05T07:34:06.335Z,94520.69
2022-10-05T07:38:26.059Z,94523.91
2022-10-05T07:39:58.486Z,94525.38
2022-10-05T07:40:58.991Z,94524.80
2022-10-05T07:42:20.464Z,94524.02
2022-10-05T07:44:03.167Z,94519.08
2022-10-05T07:45:26.893Z,94522.28
2022-10-05T07:46:51.501Z,94523.85
2022-10-05T07:48:14.215Z,94522.93
2022-10-05T07:49:22.068Z,94521.70
2022-10-05T07:50:29.758Z,94518.44
2022-10-05T07:51:46.102Z,94512.77
2022-10-05T07:52:54.564Z,94511.58
2022-10-05T07:54:18.212Z,94514.34
2022-10-05T07:55:32.541Z,94517.95
2022-10-05T07:56:41.404Z,94514.24
2022-10-05T07:57:44.947Z,94516.10
2022-10-05T07:58:49.971Z,94516.41
2022-10-05T08:00:11.599Z,94513.64
2022-10-05T08:01:38.660Z,94514.84
2022-10-05T08:03:02.257Z,94517.23
2022-10-05T08:04:10.128Z,94514.27
2022-10-05T08:05:16.376Z,94517.09
2022-10-05T08:06:25.199Z,94519.52
2022-10-05T08:07:29.838Z,94518.35
2022-10-05T08:08:36.103Z,94520.80
2022-10-05T08:09:41.522Z,94519.61
2022-10-05T08:10:50.659Z,94522.11
2022-10-05T08:11:56.965Z,94523.30
2022-10-05T08:13:06.193Z,94523.65
2022-10-05T08:14:34.009Z,94525.95
2022-10-05T08:15:41.011Z,94524.61
2022-10-05T08:16:46.819Z,94522.36
2022-10-05T08:17:55.797Z,94522.79
2022-10-05T08:19:06.981Z,94525.54
2022-10-05T08:20:29.043Z,94524.53
2022-10-05T08:21:32.077Z,94523.21
2022-10-05T08:22:41.131Z,94523.11
2022-10-05T08:23:49.399Z,94527.90
2022-10-05T08:25:00.962Z,94526.64
2022-10-05T08:26:23.788Z,94531.27
2022-10-05T08:27:40.067Z,94533.06
2022-10-05T08:28:52.641Z,94535.98
2022-10-05T08:29:59.045Z,94532.39
2022-10-05T08:31:16.284Z,94536.86
2022-10-05T08:32:24.727Z,94534.86
2022-10-05T08:33:34.603Z,94535.31
2022-10-05T08:35:00.990Z,94532.88
2022-10-05T08:36:11.302Z,94533.95
2022-10-05T08:37:23.952Z,94533.04
2022-10-05T08:38:32.396Z,94532.62
2022-10-05T08:39:49.444Z,94534.00
2022-10-05T08:40:52.535Z,94537.34
2022-10-05T08:41:55.721Z,94533.46
2022-10-05T08:43:01.996Z,94531.49
2022-10-05T08:44:33.680Z,94535.30
2022-10-05T08:45:49.243Z,94537.48
2022-10-05T08:46:52.356Z,94537.95
2022-10-05T08:48:08.184Z,94539.41
2022-10-05T08:49:34.251Z,94544.34
2022-10-05T08:50:56.999Z,94542.85
2022-10-05T08:52:00.325Z,94543.87
2022-10-05T08:53:03.455Z,94544.88
2022-10-05T08:54:06.559Z,94536.66
2022-10-05T08:55:28.193Z,94545.04
2022-10-05T08:56:31.254Z,94547.11
2022-10-05T08:57:58.979Z,94544.08
2022-10-05T08:59:20.953Z,94543.23
2022-10-05T09:00:24.425Z,94540.27
2022-10-05T09:01:40.132Z,94540.38
2022-10-05T09:02:43.524Z,94538.15
2022-10-05T09:03:46.786Z,94535.23
2022-10-05T09:05:03.712Z,94526.77
2022-10-05T09:07:50.499Z,94537.70
2022-10-05T09:08:56.992Z,94536.31
2022-10-05T09:10:03.493Z,94533.98
2022-10-05T09:11:09.554Z,94537.80
2022-10-05T09:12:29.547Z,94535.88
2022-10-05T09:13:56.060Z,94537.48
2022-10-05T09:15:27.119Z,94537.66
2022-10-05T09:16:52.966Z,94540.59
2022-10-05T09:18:16.054Z,94538.79
2022-10-05T09:19:38.243Z,94544.87
2022-10-05T09:21:00.360Z,94530.26
2022-10-05T09:22:09.717Z,94541.08
2022-10-05T09:23:16.733Z,94544.45
2022-10-05T09:24:35.899Z,94545.25
2022-10-05T09:25:55.150Z,94546.60
2022-10-05T09:27:00.765Z,94549.33
2022-10-05T09:28:31.546Z,94545.71
2022-10-05T09:29:40.847Z,94546.96
2022-10-05T09:30:52.979Z,94548.59
2022-10-05T09:32:16.587Z,94547.95
2022-10-05T09:33:34.953Z,94553.65
2022-10-05T09:34:56.929Z,94550.00
2022-10-05T09:36:02.408Z,94549.14
2022-10-05T09:37:11.770Z,94552.40
2022-10-05T09:38:30.559Z,94545.15
2022-10-05T09:40:01.913Z,94533.89
2022-10-05T09:41:23.240Z,94537.70
2022-10-05T09:42:26.744Z,94539.23
2022-10-05T09:43:45.661Z,94540.91
2022-10-05T09:45:22.698Z,94534.23
2022-10-05T09:46:58.369Z,94534.38
2022-10-05T09:48:24.767Z,94533.73
2022-10-05T09:49:40.260Z,94529.88
2022-10-05T09:51:16.320Z,94533.86
2022-10-05T09:52:31.650Z,94537.63
2022-10-05T09:53:53.188Z,94538.60
2022-10-05T09:55:01.861Z,94530.44
2022-10-05T09:56:11.481Z,94535.77
2022-10-05T09:57:33.420Z,94538.29
2022-10-05T09:59:00.115Z,94540.71
2022-10-05T10:00:21.331Z,94539.39
2022-10-05T10:01:43.263Z,94542.95
2022-10-05T10:02:49.106Z,94539.73
2022-10-05T10:04:13.921Z,94541.16
2022-10-05T10:05:25.773Z,94540.14
2022-10-05T10:06:37.062Z,94540.30
2022-10-05T10:08:06.367Z,94531.55
2022-10-05T10:09:22.120Z,94540.73
2022-10-05T10:10:44.479Z,94540.27
2022-10-05T10:12:00.603Z,94542.21
2022-10-05T10:13:06.831Z,94542.36
2022-10-05T10:14:20.252Z,94542.43
2022-10-05T10:15:48.564Z,94540.70
2022-10-05T10:16:57.748Z,94542.74
2022-10-05T10:18:15.614Z,94543.17
2022-10-05T10:19:38.168Z,94537.94
2022-10-05T10:20:53.151Z,94538.10
2022-10-05T10:22:15.844Z,94537.65
2022-10-05T10:23:29.043Z,94535.17
2022-10-05T10:24:38.286Z,94537.82
2022-10-05T10:25:41.471Z,94537.54
2022-10-05T10:27:03.419Z,94540.90
2022-10-05T10:28:19.969Z,94540.49
2022-10-05T10:29:34.646Z,94538.38
2022-10-05T10:30:43.520Z,94534.95
2022-10-05T10:31:59.009Z,94534.85
2022-10-05T10:33:02.224Z,94532.86
2022-10-05T10:34:25.750Z,94531.59
2022-10-05T10:35:32.408Z,94531.56
2022-10-05T10:36:56.126Z,94529.27
2022-10-05T10:38:08.833Z,94532.55
2022-10-05T10:39:18.248Z,94531.83
2022-10-05T10:40:26.417Z,94530.11
2022-10-05T10:41:38.461Z,94533.77
2022-10-05T10:42:44.404Z,94530.84
2022-10-05T10:44:02.994Z,94531.92
2022-10-05T10:45:08.958Z,94533.50
2022-10-05T10:46:19.159Z,94531.01
2022-10-05T10:47:41.192Z,94527.02
2022-10-05T10:48:50.245Z,94530.34
2022-10-05T10:49:59.515Z,94521.77
2022-10-05T10:51:12.494Z,94522.73
2022-10-05T10:52:24.904Z,94525.54
2022-10-05T10:53:37.049Z,94524.60
2022-10-05T10:54:49.288Z,94524.70
2022-10-05T10:56:14.034Z,94522.14
2022-10-05T10:57:23.480Z,94524.85
2022-10-05T10:58:35.592Z,94523.52
2022-10-05T10:59:53.790Z,94526.29
2022-10-05T11:01:09.000Z,94525.36
2022-10-05T11:02:18.168Z,94522.66
2022-10-05T11:03:30.378Z,94520.79
2022-10-05T11:04:45.312Z,94521.98
2022-10-05T11:05:54.960Z,94519.48
2022-10-05T11:07:16.429Z,94519.50
2022-10-05T11:08:22.585Z,94518.06
2022-10-05T11:09:28.551Z,94516.52
2022-10-05T11:10:50.154Z,94516.00
2022-10-05T11:12:14.221Z,94517.98
2022-10-05T11:13:25.165Z,94513.02
2022-10-05T11:14:57.486Z,94513.08
2022-10-05T11:16:18.796Z,94515.56
2022-10-05T11:17:41.959Z,94513.33
2022-10-05T11:19:03.908Z,94513.89
2022-10-05T11:20:22.365Z,94509.48
2022-10-05T11:21:44.039Z,94506.40
2022-10-05T11:22:54.165Z,94504.23
2022-10-05T11:24:12.803Z,94503.16
2022-10-05T11:25:15.845Z,94500.74
2022-10-05T11:26:37.805Z,94503.96
2022-10-05T11:28:00.993Z,94505.98
2022-10-05T11:29:13.867Z,94504.88
2022-10-05T11:30:19.522Z,94503.76
2022-10-05T11:31:52.853Z,94501.48
2022-10-05T11:33:02.579Z,94501.27
2022-10-05T11:34:06.859Z,94501.88
2022-10-05T11:35:19.202Z,94501.04
2022-10-05T11:36:25.982Z,94496.30
2022-10-05T11:37:29.549Z,94499.89
2022-10-05T11:38:46.424Z,94497.34
2022-10-05T11:40:08.740Z,94496.98
2022-10-05T11:41:18.089Z,94497.36
2022-10-05T11:42:41.482Z,94496.22
2022-10-05T11:44:06.325Z,94498.44
2022-10-05T11:45:13.481Z,94496.31
2022-10-05T11:46:16.531Z,94491.08
2022-10-05T11:47:31.564Z,94493.70
2022-10-05T11:49:10.213Z,94490.02
2022-10-05T11:50:13.457Z,94491.23
2022-10-05T11:51:19.249Z,94486.16
2022-10-05T11:52:34.427Z,94484.07
2022-10-05T11:53:41.004Z,94487.66
2022-10-05T11:55:15.282Z,94486.55
2022-10-05T11:56:32.026Z,94489.16
2022-10-05T11:57:35.116Z,94488.77
2022-10-05T11:58:48.105Z,94490.20
2022-10-05T11:59:58.831Z,94486.63
2022-10-05T12:01:04.846Z,94487.21
2022-10-05T12:02:16.841Z,94485.58
2022-10-05T12:03:46.018Z,94485.89
2022-10-05T12:05:04.056Z,94486.74
2022-10-05T12:06:26.774Z,94486.55
2022-10-05T12:07:30.323Z,94487.67
2022-10-05T12:08:45.764Z,94488.09
2022-10-05T12:10:09.628Z,94488.55
2022-10-05T12:11:12.695Z,94492.14
2022-10-05T12:12:22.216Z,94489.02
2022-10-05T12:13:36.469Z,94492.90
2022-10-05T12:14:42.408Z,94492.34
2022-10-05T12:15:54.749Z,94487.92
2022-10-05T12:17:00.910Z,94486.10
2022-10-05T12:18:42.277Z,94485.58
2022-10-05T12:20:06.063Z,94483.84
2022-10-05T12:21:45.099Z,94479.92
2022-10-05T12:22:54.038Z,94477.55
2022-10-05T12:24:03.802Z,94477.79
2022-10-05T12:25:42.089Z,94479.52
2022-10-05T12:26:51.006Z,94476.44
2022-10-05T12:27:58.873Z,94474.36
2022-10-05T12:29:05.060Z,94473.89
2022-10-05T12:30:11.115Z,94473.45
2022-10-05T12:31:21.082Z,94475.23
2022-10-05T12:32:27.179Z,94475.63
2022-10-05T12:33:35.920Z,94473.38
2022-10-05T12:35:03.556Z,94466.14
2022-10-05T12:36:20.069Z,94466.69
2022-10-05T12:37:42.728Z,94467.89
2022-10-05T12:39:01.924Z,94467.08
2022-10-05T12:40:25.423Z,94462.10
2022-10-05T12:41:33.939Z,94470.04
2022-10-05T12:42:41.518Z,94467.52
2022-10-05T12:43:47.622Z,94469.54
2022-10-05T12:44:54.424Z,94466.89
2022-10-05T12:45:58.587Z,94465.39
2022-10-05T12:47:01.673Z,94468.90
2022-10-05T12:48:07.888Z,94468.27
2022-10-05T12:49:11.294Z,94465.26
2022-10-05T12:50:24.975Z,94468.86
2022-10-05T12:51:28.129Z,94469.17
2022-10-05T12:52:43.604Z,94464.43
2022-10-05T12:53:55.860Z,94464.74
2022-10-05T12:55:15.749Z,94466.73
2022-10-05T12:56:21.522Z,94468.39
2022-10-05T12:57:24.581Z,94463.54
2022-10-05T12:58:33.410Z,94467.09
2022-10-05T12:59:42.591Z,94465.06
2022-10-05T13:01:13.140Z,94463.81
2022-10-05T13:02:25.753Z,94463.27
2022-10-05T13:03:38.316Z,94457.05
2022-10-05T13:04:41.343Z,94459.70
2022-10-05T13:05:47.341Z,94459.38
2022-10-05T13:06:53.261Z,94456.56
2022-10-05T13:08:13.752Z,94458.37
2022-10-05T13:09:16.774Z,94456.98
2022-10-05T13:10:20.080Z,94453.05
2022-10-05T13:11:42.946Z,94458.45
2022-10-05T13:12:56.547Z,94454.59
2022-10-05T13:14:08.546Z,94457.30
2022-10-05T13:15:14.288Z,94458.66
2022-10-05T13:16:20.423Z,94454.44
2022-10-05T13:17:34.673Z,94455.54
2022-10-05T13:18:37.791Z,94457.30
2022-10-05T13:19:44.845Z,94455.27
2022-10-05T13:20:54.594Z,94454.42
2022-10-05T13:22:00.762Z,94455.27
2022-10-05T13:23:19.203Z,94456.80
2022-10-05T13:24:36.265Z,94455.38
2022-10-05T13:25:44.944Z,94458.23
2022-10-05T13:26:52.005Z,94456.49
2022-10-05T13:28:01.164Z,94459.58
2022-10-05T13:29:22.364Z,94454.45
2022-10-05T13:30:25.793Z,94458.98
2022-10-05T13:31:28.831Z,94461.90
2022-10-05T13:32:37.981Z,94461.81
2022-10-05T13:34:01.482Z,94461.05
2022-10-05T13:35:09.212Z,94462.90
2022-10-05T13:36:19.218Z,94463.45
2022-10-05T13:37:41.335Z,94457.63
2022-10-05T13:39:06.063Z,94456.34
2022-10-05T13:40:13.045Z,94457.45
2022-10-05T13:41:36.880Z,94453.10
2022-10-05T13:42:55.722Z,94445.59
2022-10-05T13:44:05.601Z,94453.80
2022-10-05T13:45:17.396Z,94455.15
2022-10-05T13:46:46.896Z,94452.02
2022-10-05T13:48:05.813Z,94452.35
2022-10-05T13:49:19.501Z,94451.70
2022-10-05T13:50:31.196Z,94447.99
2022-10-05T13:51:46.351Z,94452.77
2022-10-05T13:52:58.568Z,94452.14
2022-10-05T13:54:05.854Z,94453.17
2022-10-05T13:55:30.633Z,94453.29
2022-10-05T13:56:48.779Z,94451.70
2022-10-05T13:58:18.645Z,94450.75
2022-10-05T13:59:30.549Z,94452.42
2022-10-05T14:00:41.505Z,94453.58
2022-10-05T14:01:52.779Z,94451.26
2022-10-05T14:02:57.128Z,94453.91
2022-10-05T14:04:17.095Z,94450.89
2022-10-05T14:05:42.776Z,94448.55
2022-10-05T14:06:48.418Z,94449.98
2022-10-05T14:07:53.270Z,94450.35
2022-10-05T14:08:58.311Z,94446.02
2022-10-05T14:10:02.176Z,94445.85
2022-10-05T14:11:23.794Z,94446.21
2022-10-05T14:12:27.861Z,94447.52
2022-10-05T14:13:47.623Z,94448.02
2022-10-05T14:14:52.173Z,94446.21
2022-10-05T14:15:59.696Z,94442.56
2022-10-05T14:17:13.417Z,94441.48
2022-10-05T14:18:27.609Z,94442.55
2022-10-05T14:19:34.706Z,94443.84
2022-10-05T14:20:37.801Z,94443.73
2022-10-05T14:21:49.814Z,94439.77
2022-10-05T14:23:03.218Z,94443.95
2022-10-05T14:24:42.511Z,94443.48
2022-10-05T14:25:46.995Z,94448.17
2022-10-05T14:26:53.860Z,94446.10
2022-10-05T14:28:12.416Z,94441.95
2022-10-05T14:29:17.529Z,94444.97
2022-10-05T14:30:24.868Z,94443.62
2022-10-05T14:31:29.780Z,94443.85